Flight Track Log - Related Links

Times and Time Zones

All times are in EST time to prevent confusion due to time zone crossing. See the N855BC flight status page for this flight to view local times or setup timezone preferences in your user account.

Time Position Orientation Groundspeed Altitude Reporting Facility
EST Latitude Longitude Course Direction KTS MPH feet Rate Location/Type
Wed 05:26:29 PM 27.9333 -82.6833 227° Southwest 162 186 600  Level Tampa TRACON
Wed 05:28:37 PM 27.8772 -82.7519 227° Southwest 166 191 5,000 2,202 Climbing Miami Center
Wed 05:29:37 PM 27.8236 -82.7375 167° South 166 191 7,500 2,550 Climbing Miami Center
Wed 05:30:37 PM 27.7678 -82.7275 171° South 190 219 10,100 2,500 Climbing Miami Center
Wed 05:31:37 PM 27.6931 -82.7167 173° South 232 267 12,500 2,200 Climbing Miami Center
Wed 05:32:37 PM 27.6303 -82.6667 145° Southeast 257 296 14,500 1,950 Climbing Miami Center
Wed 05:33:37 PM 27.5639 -82.6069 141° Southeast 275 316 16,400 1,300 Climbing Miami Center
Wed 05:34:37 PM 27.4892 -82.5447 144° Southeast 308 354 17,100 350 Climbing Miami Center
Wed 05:35:37 PM 27.4083 -82.4800 145° Southeast 337 388 17,100  Level Miami Center
Wed 05:36:37 PM 27.3211 -82.4103 145° Southeast 366 421 17,100 -50 Level Miami Center
Wed 05:37:37 PM 27.2342 -82.3386 144° Southeast 377 434 17,000 -50 Descending Miami Center
Wed 05:38:37 PM 27.1431 -82.2664 145° Southeast 390 449 17,000  Level Miami Center
Wed 05:39:37 PM 27.0539 -82.1925 144° Southeast 395 455 17,000  Level Miami Center
Wed 05:40:37 PM 26.9758 -82.1050 135° Southeast 395 455 17,000  Level Miami Center
Wed 05:41:37 PM 26.9022 -82.0039 129° Southeast 405 466 17,000  Level Miami Center
Wed 05:42:37 PM 26.8325 -81.9078 129° Southeast 405 466 17,000  Level Miami Center
Wed 05:43:37 PM 26.7586 -81.8092 130° Southeast 413 475 17,000  Level Miami Center
Wed 05:44:36 PM 26.6825 -81.7108 131° Southeast 413 475 17,000  Level Miami Center
Wed 05:45:37 PM 26.6167 -81.6222 130° Southeast 413 475 17,000 -50 Level Miami Center
Wed 05:46:37 PM 26.5425 -81.5264 131° Southeast 413 475 16,900 -600 Descending Miami Center
Wed 05:47:37 PM 26.4683 -81.4283 130° Southeast 413 475 15,800 -1,050 Descending Miami Center
Wed 05:48:37 PM 26.3942 -81.3325 131° Southeast 413 475 14,800 -950 Descending Miami Center
Wed 05:49:37 PM 26.3358 -81.2586 131° Southeast 407 468 13,900 -1,400 Descending Miami Center
Wed 05:50:37 PM 26.2514 -81.1467 130° Southeast 395 455 12,000 -2,074 Descending Miami Center
Wed 05:50:58 PM 26.2172 -81.1036 131° Southeast 385 443 11,100 -2,364 Descending Miami Center
Wed 05:51:10 PM 26.2031 -81.0894 138° Southeast 382 440 10,700 -2,000 Descending Miami Center
Wed 05:51:37 PM 26.1789 -81.0514 125° Southeast 385 443 9,800 -1,839 Descending Miami Center
Wed 05:52:12 PM 26.1383 -81.0083 136° Southeast 302 348 8,800 -1,700 Descending Miami Center
Wed 05:52:37 PM 26.1183 -80.9822 130° Southeast 346 398 8,100 -1,869 Descending Miami Center
Wed 05:53:13 PM 26.0817 -80.9533 145° Southeast 269 310 6,900 -1,299 Descending Miami Center
Wed 05:54:14 PM 26.0200 -80.9094 147° Southeast 252 290 6,000 -643 Descending Miami Center
Wed 05:54:37 PM 26.0039 -80.8906 133° Southeast 267 307 6,000 -98 Level Miami Center
Wed 05:55:15 PM 25.9864 -80.8483 115° Southeast 250 288 5,900 -338 Descending Miami Center
Wed 05:55:48 PM 25.9892 -80.8206 84° East 208 239 5,600 -984 Descending Miami Center
Wed 05:56:16 PM 25.9967 -80.7678 81° East 262 302 4,900 -1,180 Descending Miami Center
Wed 05:56:49 PM 26.0206 -80.7339 52° Northeast 220 253 4,400 -984 Descending Miami Center
Wed 05:57:17 PM 26.0403 -80.7067 51° Northeast 250 288 3,900 -900 Descending Miami Center
Wed 05:57:49 PM 26.0661 -80.6728 50° Northeast 220 253 3,500 -885 Descending Miami Center
Wed 05:58:18 PM 26.0878 -80.6458 48° Northeast 259 298 3,000 -600 Descending Miami Center
Wed 05:58:49 PM 26.1117 -80.6119 52° Northeast 242 278 2,900  Descending Miami Center
Wed 05:59:19 PM 26.1333 -80.5825 51° Northeast 231 266 3,000  Climbing Miami Center
Wed 05:59:49 PM 26.1528 -80.5531 54° Northeast 242 278 2,900 -387 Descending Miami Center
Wed 06:00:21 PM 26.1600 -80.5186 77° East 243 280 2,600 -600 Descending Miami Center
Wed 06:00:49 PM 26.1692 -80.4819 74° East 237 273 2,300 -393 Descending Miami Center
Wed 06:01:22 PM 26.1700 -80.4425 89° East 225 259 2,200 -64 Descending Miami Center
Wed 06:02:23 PM 26.1736 -80.3800 86° East 188 216 2,200  Level Miami Center
Wed 06:03:24 PM 26.1811 -80.3269 81° East 164 189 2,200 -295 Level Miami Center
Wed 06:04:25 PM 26.1822 -80.2808 88° East 137 158 1,600 -639 Descending Miami Center
Wed 06:05:26 PM 26.1894 -80.2417 78° East 128 147 900 -639 Descending Miami Center
Wed 06:06:27 PM 26.1944 -80.2047 81° East 115 132 300 -590 Descending Miami Center
Wed 06:08:00 PM 26.1833 -80.1667 70° East  Level FlightAware Approximate
Wed 06:15:00 PM 26.1973 -80.1707 70° East  Level Estimated

Login

Don't have an account? Register now (free) for customized features, flight alerts, and more!